Time;durP1;ratioP1;P1;durP2;ratioP2;P2;SDS_P1;SDS_P2;PMS_P1;PMS_P2;Temp;Humidity;BMP_temperature;BMP_pressure;BME280_temperature;BME280_humidity;BME280_pressure;Samples;Min_cycle;Max_cycle;Signal;HPM_P1;HPM_P2
2023/09/27 00:01:53;;;;;;;22.45;15.43;;;14.40;99.90;;;;;;5076284;28;20027;-67
2023/09/27 00:04:19;;;;;;;19.35;14.85;;;14.40;99.90;;;;;;5076216;28;20055;-67
2023/09/27 00:06:44;;;;;;;18.88;13.93;;;14.30;99.90;;;;;;5076301;28;20372;-67
2023/09/27 00:09:10;;;;;;;18.85;14.85;;;14.30;99.90;;;;;;5059057;28;20032;-67
2023/09/27 00:11:36;;;;;;;21.23;14.90;;;14.30;99.90;;;;;;5058217;28;20116;-67
2023/09/27 00:14:02;;;;;;;18.77;14.82;;;14.30;99.90;;;;;;5076333;28;20610;-67
2023/09/27 00:16:28;;;;;;;23.48;14.95;;;14.30;99.90;;;;;;5076473;28;20028;-67
2023/09/27 00:18:53;;;;;;;22.13;14.90;;;14.20;99.90;;;;;;5075676;28;20028;-67
2023/09/27 00:21:19;;;;;;;25.85;15.48;;;14.20;99.90;;;;;;5075677;28;20028;-67
2023/09/27 00:23:44;;;;;;;24.27;15.75;;;14.20;99.90;;;;;;5076148;28;20040;-67
2023/09/27 00:26:10;;;;;;;20.13;14.52;;;14.20;99.90;;;;;;5058475;28;20047;-67
2023/09/27 00:28:36;;;;;;;18.20;14.23;;;14.20;99.90;;;;;;5076138;28;20068;-67
2023/09/27 00:31:02;;;;;;;21.90;14.52;;;14.20;99.90;;;;;;5075514;28;20108;-67
2023/09/27 00:33:27;;;;;;;17.98;13.82;;;14.10;99.90;;;;;;5075696;28;20038;-67
2023/09/27 00:35:53;;;;;;;19.02;14.35;;;14.10;99.90;;;;;;5075315;28;20476;-67
2023/09/27 00:38:18;;;;;;;21.23;14.85;;;14.00;99.90;;;;;;5075746;28;20074;-67
2023/09/27 00:40:48;;;;;;;19.70;14.05;;;14.00;99.90;;;;;;5075369;28;20493;-67
2023/09/27 00:43:26;;;;;;;19.02;13.68;;;13.90;99.90;;;;;;5075192;28;20472;-67
2023/09/27 00:46:13;;;;;;;21.38;13.88;;;13.90;99.90;;;;;;5075388;28;20036;-67
2023/09/27 00:48:38;;;;;;;23.55;13.98;;;13.90;99.90;;;;;;5074894;28;20036;-66
2023/09/27 00:51:05;;;;;;;21.30;16.45;;;13.90;99.90;;;;;;5075346;28;20483;-67
2023/09/27 00:53:33;;;;;;;22.50;15.07;;;13.90;99.90;;;;;;5057613;28;20036;-67
2023/09/27 00:56:00;;;;;;;26.13;15.30;;;13.90;99.90;;;;;;5057355;28;20031;-67
2023/09/27 00:58:25;;;;;;;17.67;14.10;;;13.80;99.90;;;;;;5057263;28;20040;-67
2023/09/27 01:00:52;;;;;;;26.52;14.82;;;13.80;99.90;;;;;;5056212;28;20024;-67
2023/09/27 01:03:18;;;;;;;17.52;13.85;;;13.80;99.90;;;;;;5074932;28;20025;-67
2023/09/27 01:05:45;;;;;;;18.48;14.18;;;13.80;99.90;;;;;;5075063;28;20068;-67
2023/09/27 01:08:11;;;;;;;19.27;14.23;;;13.80;99.90;;;;;;5074629;28;20423;-67
2023/09/27 01:10:37;;;;;;;19.63;13.93;;;13.70;99.90;;;;;;5074651;28;20029;-67
2023/09/27 01:13:04;;;;;;;19.88;13.80;;;13.70;99.90;;;;;;5057080;28;20020;-67
2023/09/27 01:15:30;;;;;;;21.00;13.75;;;13.70;99.90;;;;;;5074866;28;20040;-66
2023/09/27 01:17:57;;;;;;;17.08;13.05;;;13.70;99.90;;;;;;5074813;28;20021;-67
2023/09/27 01:20:24;;;;;;;19.92;14.15;;;13.70;99.90;;;;;;5074799;28;20025;-67
2023/09/27 01:23:03;;;;;;;20.27;14.77;;;13.60;99.90;;;;;;5074927;28;20047;-68
2023/09/27 01:25:31;;;;;;;21.40;15.13;;;13.60;99.90;;;;;;5056926;28;20032;-67
2023/09/27 01:28:01;;;;;;;19.57;14.37;;;13.70;99.90;;;;;;5074752;28;20029;-67
2023/09/27 01:30:34;;;;;;;22.83;15.65;;;13.60;99.90;;;;;;5075131;28;20259;-67
2023/09/27 01:33:08;;;;;;;22.40;16.48;;;13.60;99.90;;;;;;5056628;28;20029;-67
2023/09/27 01:35:40;;;;;;;19.33;15.02;;;13.60;99.90;;;;;;5074309;28;20051;-67
2023/09/27 01:38:08;;;;;;;18.27;14.65;;;13.60;99.90;;;;;;5074802;28;20167;-67
2023/09/27 01:40:40;;;;;;;20.27;14.63;;;13.60;99.90;;;;;;5056489;28;20059;-67
2023/09/27 01:43:06;;;;;;;20.95;14.75;;;13.50;99.90;;;;;;5074623;28;20032;-67
2023/09/27 01:45:32;;;;;;;19.33;14.05;;;13.50;99.90;;;;;;5074667;28;20036;-67
2023/09/27 01:47:58;;;;;;;21.50;15.32;;;13.40;99.90;;;;;;5057219;28;20028;-67
2023/09/27 01:50:25;;;;;;;21.33;14.52;;;13.40;99.90;;;;;;5056374;28;20028;-67
2023/09/27 01:52:55;;;;;;;24.92;15.15;;;13.40;99.90;;;;;;5074333;28;20124;-67
2023/09/27 01:55:21;;;;;;;22.67;15.00;;;13.40;99.90;;;;;;5073859;28;20068;-67
2023/09/27 01:57:47;;;;;;;27.02;15.40;;;13.40;99.90;;;;;;5073824;28;20447;-66
2023/09/27 02:00:17;;;;;;;31.45;15.20;;;13.40;99.90;;;;;;5056267;28;20115;-67
2023/09/27 02:02:51;;;;;;;26.13;14.70;;;13.50;99.90;;;;;;5056081;28;20142;-66
2023/09/27 02:05:17;;;;;;;33.85;16.83;;;13.40;99.90;;;;;;5056100;28;20060;-67
2023/09/27 02:07:43;;;;;;;27.67;16.83;;;13.40;99.90;;;;;;5073798;28;20113;-67
2023/09/27 02:10:10;;;;;;;23.58;15.25;;;13.40;99.90;;;;;;5074026;28;20437;-67
2023/09/27 02:12:37;;;;;;;28.63;16.02;;;13.50;99.90;;;;;;5073936;28;20028;-67
2023/09/27 02:15:12;;;;;;;27.38;15.95;;;13.50;99.90;;;;;;5074012;28;20032;-66
2023/09/27 02:17:39;;;;;;;29.38;15.40;;;13.50;99.90;;;;;;5074323;28;20092;-67
2023/09/27 02:20:07;;;;;;;33.38;16.17;;;13.50;99.90;;;;;;5073877;28;20024;-66
2023/09/27 02:22:33;;;;;;;27.95;16.42;;;13.50;99.90;;;;;;5055859;28;20472;-67
2023/09/27 02:24:59;;;;;;;22.60;16.27;;;13.50;99.90;;;;;;5073524;28;20036;-67
2023/09/27 02:27:25;;;;;;;23.73;15.27;;;13.50;99.90;;;;;;5073990;28;20024;-67
2023/09/27 02:29:50;;;;;;;27.80;16.13;;;13.50;99.90;;;;;;5073617;28;20067;-67
2023/09/27 02:32:17;;;;;;;29.42;15.70;;;13.50;99.90;;;;;;5073884;28;20024;-67
2023/09/27 02:34:43;;;;;;;33.60;17.42;;;13.50;99.90;;;;;;5055567;28;20029;-67
2023/09/27 02:37:09;;;;;;;26.60;17.95;;;13.60;99.90;;;;;;5073815;28;20026;-67
2023/09/27 02:39:35;;;;;;;28.50;18.27;;;13.60;99.90;;;;;;5055626;28;20094;-66
2023/09/27 02:42:00;;;;;;;25.02;17.80;;;13.60;99.90;;;;;;5073987;28;20036;-66
2023/09/27 02:44:27;;;;;;;30.10;20.27;;;13.60;99.90;;;;;;5073629;28;20039;-67
2023/09/27 02:46:53;;;;;;;30.67;19.23;;;13.50;99.90;;;;;;5073803;28;20108;-67
2023/09/27 02:49:19;;;;;;;26.63;16.60;;;13.50;99.90;;;;;;5055636;28;20021;-67
2023/09/27 02:51:48;;;;;;;24.45;16.50;;;13.40;99.90;;;;;;5073532;28;20023;-67
2023/09/27 02:54:14;;;;;;;23.90;16.67;;;13.40;99.90;;;;;;5073203;28;20025;-67
2023/09/27 02:56:43;;;;;;;21.85;15.40;;;13.30;99.90;;;;;;5055484;28;20025;-67
2023/09/27 02:59:11;;;;;;;27.63;16.02;;;13.30;99.90;;;;;;5055128;28;20028;-67
2023/09/27 03:01:41;;;;;;;22.90;15.73;;;13.20;99.90;;;;;;5073511;28;20142;-67
2023/09/27 03:04:11;;;;;;;35.97;18.15;;;13.20;99.90;;;;;;5055321;28;20024;-67
2023/09/27 03:06:41;;;;;;;25.98;16.77;;;13.20;99.90;;;;;;5055350;28;20016;-67
2023/09/27 03:09:11;;;;;;;29.80;18.13;;;13.20;99.90;;;;;;5055776;28;20427;-67
2023/09/27 03:11:38;;;;;;;31.42;17.88;;;13.20;99.90;;;;;;5073505;28;20033;-67
2023/09/27 03:14:04;;;;;;;27.48;18.05;;;13.20;99.90;;;;;;5073427;28;20028;-67
2023/09/27 03:16:29;;;;;;;26.05;18.13;;;13.20;99.90;;;;;;5073291;28;20097;-67
2023/09/27 03:18:58;;;;;;;25.38;17.23;;;13.20;99.90;;;;;;5055558;28;20407;-67
2023/09/27 03:21:24;;;;;;;25.80;17.40;;;13.20;99.90;;;;;;5072918;28;20431;-67
2023/09/27 03:23:50;;;;;;;29.95;18.85;;;13.20;99.90;;;;;;5073791;28;20028;-67
2023/09/27 03:26:15;;;;;;;29.50;18.02;;;13.20;99.90;;;;;;5077101;28;20064;-67
2023/09/27 03:28:41;;;;;;;24.33;17.63;;;13.20;99.90;;;;;;5076662;28;20416;-66
2023/09/27 03:31:07;;;;;;;29.10;18.60;;;13.20;99.90;;;;;;5076879;28;20079;-67
2023/09/27 03:33:33;;;;;;;27.00;17.65;;;13.20;99.90;;;;;;5076510;28;20029;-67
2023/09/27 03:36:03;;;;;;;31.48;17.33;;;13.20;99.90;;;;;;5076270;28;20044;-67
2023/09/27 03:38:29;;;;;;;25.13;15.68;;;13.20;99.90;;;;;;5076839;28;20120;-67
2023/09/27 03:40:54;;;;;;;25.25;15.85;;;13.10;99.90;;;;;;5058788;28;20516;-67
2023/09/27 03:43:20;;;;;;;23.88;15.15;;;13.10;99.90;;;;;;5058812;28;20020;-67
2023/09/27 03:45:46;;;;;;;30.02;16.85;;;13.00;99.90;;;;;;5076232;28;20067;-67
2023/09/27 03:48:11;;;;;;;24.40;16.50;;;13.00;99.90;;;;;;5076578;28;20036;-67
2023/09/27 03:50:37;;;;;;;25.85;16.85;;;13.00;99.90;;;;;;5058548;28;20020;-67
2023/09/27 03:53:04;;;;;;;26.48;16.98;;;12.90;99.90;;;;;;5076391;28;20031;-67
2023/09/27 03:55:29;;;;;;;24.40;17.33;;;12.90;99.90;;;;;;5058384;28;20067;-67
2023/09/27 03:57:55;;;;;;;28.88;18.10;;;12.90;99.90;;;;;;5076340;28;20025;-67
2023/09/27 04:00:21;;;;;;;26.13;17.60;;;12.80;99.90;;;;;;5076416;28;20032;-67
2023/09/27 04:02:47;;;;;;;28.25;17.60;;;12.90;99.90;;;;;;5058022;28;20384;-67
2023/09/27 04:05:14;;;;;;;25.83;17.80;;;12.80;99.90;;;;;;5076323;28;20032;-67
2023/09/27 04:07:41;;;;;;;25.60;17.40;;;12.90;99.90;;;;;;5058362;28;20384;-67
2023/09/27 04:10:07;;;;;;;26.73;16.75;;;12.80;99.90;;;;;;5058673;28;20364;-67
2023/09/27 04:12:34;;;;;;;27.60;15.88;;;12.80;99.90;;;;;;5058654;28;20029;-67
2023/09/27 04:15:00;;;;;;;27.27;16.35;;;12.80;99.90;;;;;;5058073;28;20036;-67
2023/09/27 04:17:26;;;;;;;27.08;16.65;;;12.80;99.90;;;;;;5058067;28;20028;-77
2023/09/27 04:19:53;;;;;;;27.38;17.85;;;12.80;99.90;;;;;;5075638;28;20162;-67
2023/09/27 04:22:19;;;;;;;25.65;17.85;;;12.70;99.90;;;;;;5058168;28;20067;-67
2023/09/27 04:24:44;;;;;;;23.95;17.50;;;12.70;99.90;;;;;;5057838;28;20060;-67
2023/09/27 04:27:10;;;;;;;22.02;17.92;;;12.70;99.90;;;;;;5057828;28;20071;-67
2023/09/27 04:29:36;;;;;;;25.17;16.55;;;12.70;99.90;;;;;;5057836;28;20031;-67
2023/09/27 04:32:01;;;;;;;23.20;16.33;;;12.70;99.90;;;;;;5057842;28;20456;-66
2023/09/27 04:34:28;;;;;;;27.38;18.67;;;12.70;99.90;;;;;;5075687;28;20028;-67
2023/09/27 04:36:53;;;;;;;27.65;18.60;;;12.70;99.90;;;;;;5075379;28;20489;-67
2023/09/27 04:39:19;;;;;;;27.65;17.90;;;12.70;99.90;;;;;;5075931;28;20039;-67
2023/09/27 04:41:49;;;;;;;27.02;18.48;;;12.70;99.90;;;;;;5075490;28;20052;-67
2023/09/27 04:44:14;;;;;;;33.97;18.75;;;12.70;99.90;;;;;;5057356;28;20502;-67
2023/09/27 04:46:40;;;;;;;24.17;16.40;;;12.70;99.90;;;;;;5057389;28;20028;-67
2023/09/27 04:49:06;;;;;;;23.65;15.63;;;12.70;99.90;;;;;;5057234;28;20028;-67
2023/09/27 04:51:32;;;;;;;26.15;17.50;;;12.70;99.90;;;;;;5057468;28;20464;-67
2023/09/27 04:54:03;;;;;;;25.08;16.65;;;12.60;99.90;;;;;;5075512;28;20500;-68
2023/09/27 04:56:29;;;;;;;26.13;17.35;;;12.60;99.90;;;;;;5078490;28;20071;-68
2023/09/27 04:59:07;;;;;;;29.10;18.17;;;12.60;99.90;;;;;;5058115;28;20111;-68
2023/09/27 05:01:32;;;;;;;31.52;17.83;;;12.60;99.90;;;;;;5075290;28;20021;-68
2023/09/27 05:03:58;;;;;;;28.27;17.58;;;12.60;99.90;;;;;;5075024;28;20132;-68
2023/09/27 05:06:24;;;;;;;27.67;18.50;;;12.60;99.90;;;;;;5074738;28;20583;-68
2023/09/27 05:08:50;;;;;;;30.33;19.80;;;12.70;99.90;;;;;;5074781;28;20076;-68
2023/09/27 05:11:18;;;;;;;30.55;20.15;;;12.70;99.90;;;;;;5056964;28;20032;-67
2023/09/27 05:13:45;;;;;;;34.72;19.48;;;12.70;99.90;;;;;;5074901;28;20025;-68
2023/09/27 05:16:11;;;;;;;32.20;20.17;;;12.80;99.90;;;;;;5074808;28;20082;-68
2023/09/27 05:18:36;;;;;;;33.92;21.60;;;12.80;99.90;;;;;;5075051;28;20468;-68
2023/09/27 05:21:06;;;;;;;30.33;18.85;;;12.80;99.90;;;;;;5056833;28;20380;-68
2023/09/27 05:23:31;;;;;;;;;;;12.90;99.90;;;;;;5075086;28;20028;-67
2023/09/27 05:25:57;;;;;;;37.33;21.52;;;12.90;99.90;;;;;;5074421;28;19912;-67
2023/09/27 05:28:23;;;;;;;25.63;19.27;;;12.90;99.90;;;;;;5056444;28;20029;-68
2023/09/27 05:30:48;;;;;;;31.48;21.02;;;12.90;99.90;;;;;;5056693;28;20035;-68
2023/09/27 05:33:14;;;;;;;29.80;20.60;;;13.00;99.90;;;;;;5074660;28;20024;-68
2023/09/27 05:35:40;;;;;;;33.03;20.88;;;13.00;99.90;;;;;;5074567;28;20048;-67
2023/09/27 05:38:06;;;;;;;36.10;23.50;;;13.00;99.90;;;;;;5074353;28;20064;-68
2023/09/27 05:40:31;;;;;;;36.22;22.95;;;13.10;99.90;;;;;;5056428;28;20047;-67
2023/09/27 05:42:57;;;;;;;34.38;22.33;;;13.10;99.90;;;;;;5074334;28;20107;-68
2023/09/27 05:45:22;;;;;;;32.05;20.65;;;13.20;99.90;;;;;;5056051;28;20376;-68
2023/09/27 05:47:48;;;;;;;31.90;21.00;;;13.20;99.90;;;;;;5073348;28;20483;-68
2023/09/27 05:50:14;;;;;;;27.60;18.88;;;13.30;99.90;;;;;;5074057;28;20029;-68
2023/09/27 05:52:44;;;;;;;32.72;19.88;;;13.30;99.90;;;;;;5074068;28;20028;-68
2023/09/27 05:55:11;;;;;;;29.83;21.02;;;13.30;99.90;;;;;;5074361;28;20029;-68
2023/09/27 05:57:36;;;;;;;28.20;19.60;;;13.40;99.90;;;;;;5056276;28;20035;-68
2023/09/27 06:00:14;;;;;;;33.60;20.73;;;13.50;99.90;;;;;;5056124;28;20058;-68
2023/09/27 06:02:39;;;;;;;27.65;19.55;;;13.50;99.90;;;;;;5056120;28;20036;-68
2023/09/27 06:05:06;;;;;;;26.48;19.83;;;13.80;99.90;;;;;;5056085;28;20028;-68
2023/09/27 06:07:33;;;;;;;28.95;18.55;;;14.20;99.90;;;;;;5073793;28;20026;-68
2023/09/27 06:09:59;;;;;;;26.33;17.33;;;14.50;99.90;;;;;;5056006;28;20029;-68
2023/09/27 06:12:25;;;;;;;19.02;14.88;;;14.80;99.90;;;;;;5074033;28;20431;-68
2023/09/27 06:14:51;;;;;;;19.40;15.18;;;15.10;99.90;;;;;;5056168;28;20128;-68
2023/09/27 06:17:17;;;;;;;23.50;14.95;;;15.20;99.90;;;;;;5073847;28;20025;-68
2023/09/27 06:19:43;;;;;;;20.30;14.30;;;15.10;99.90;;;;;;5073873;28;20050;-68
2023/09/27 06:22:10;;;;;;;19.77;14.45;;;15.10;99.90;;;;;;5073835;28;20087;-68
2023/09/27 06:24:39;;;;;;;20.00;15.77;;;15.20;99.90;;;;;;5073830;28;20353;-68
2023/09/27 06:27:05;;;;;;;26.33;15.43;;;15.30;99.90;;;;;;5055946;28;20025;-68
2023/09/27 06:29:31;;;;;;;22.65;15.60;;;15.40;99.90;;;;;;5073830;28;20464;-68
2023/09/27 06:31:57;;;;;;;21.40;15.25;;;15.50;99.90;;;;;;5073397;28;20037;-68
2023/09/27 06:34:22;;;;;;;24.92;16.13;;;15.60;99.90;;;;;;5073630;28;20032;-68
2023/09/27 06:36:48;;;;;;;23.85;16.38;;;15.70;99.90;;;;;;5090229;28;20252;-68
2023/09/27 06:39:19;;;;;;;26.48;15.55;;;15.80;99.90;;;;;;5093753;28;20035;-68
2023/09/27 06:41:45;;;;;;;25.75;15.52;;;16.00;99.90;;;;;;5093935;28;20028;-68
2023/09/27 06:44:12;;;;;;;25.65;15.25;;;16.10;99.90;;;;;;5092406;28;20024;-68
2023/09/27 06:46:38;;;;;;;18.83;14.50;;;16.20;99.90;;;;;;5093694;28;20023;-68
2023/09/27 06:49:03;;;;;;;19.58;14.73;;;16.30;99.90;;;;;;5094660;28;20032;-68
2023/09/27 06:51:30;;;;;;;24.05;13.82;;;16.50;99.90;;;;;;5093939;28;20384;-68
2023/09/27 06:53:55;;;;;;;24.85;14.18;;;16.60;99.90;;;;;;5094365;28;20448;-68
2023/09/27 06:56:21;;;;;;;21.17;12.95;;;16.80;99.90;;;;;;5093867;28;20038;-68
2023/09/27 06:58:48;;;;;;;17.20;12.00;;;17.10;99.90;;;;;;5094308;28;20100;-68
2023/09/27 07:01:14;;;;;;;21.45;12.90;;;17.40;99.90;;;;;;5096547;28;20050;-68
2023/09/27 07:03:40;;;;;;;18.38;11.82;;;17.90;99.90;;;;;;5097504;28;20099;-68
2023/09/27 07:06:06;;;;;;;17.88;11.75;;;18.20;99.90;;;;;;5097629;28;20507;-68
2023/09/27 07:08:32;;;;;;;23.52;12.40;;;18.60;99.90;;;;;;5097510;28;20090;-68
2023/09/27 07:11:05;;;;;;;22.33;12.32;;;19.00;99.90;;;;;;5097419;28;20406;-68
2023/09/27 07:13:31;;;;;;;20.23;11.90;;;19.50;99.90;;;;;;5097305;28;20020;-68
2023/09/27 07:15:57;;;;;;;23.27;12.00;;;19.90;99.90;;;;;;5097486;28;20070;-68
2023/09/27 07:18:24;;;;;;;17.85;12.18;;;20.10;99.90;;;;;;5097284;28;20024;-68
2023/09/27 07:20:50;;;;;;;18.00;11.52;;;20.30;99.90;;;;;;5097134;28;20372;-68
2023/09/27 07:23:17;;;;;;;14.55;10.50;;;20.50;99.90;;;;;;5096101;28;20020;-68
2023/09/27 07:25:44;;;;;;;21.65;11.27;;;20.80;99.90;;;;;;5095893;28;20389;-68
2023/09/27 07:28:10;;;;;;;23.58;12.10;;;21.10;99.90;;;;;;5097620;28;20039;-68
2023/09/27 07:30:37;;;;;;;18.85;11.82;;;21.30;99.90;;;;;;5097251;28;20077;-68
2023/09/27 07:33:09;;;;;;;25.15;11.82;;;21.50;99.90;;;;;;5097597;28;20043;-68
2023/09/27 07:35:38;;;;;;;18.67;11.70;;;21.80;99.90;;;;;;5087995;28;20087;-69
2023/09/27 07:38:04;;;;;;;25.63;11.32;;;22.10;99.90;;;;;;5076989;28;20017;-69
2023/09/27 07:40:30;;;;;;;16.90;11.82;;;22.40;99.90;;;;;;5076822;28;20029;-68
2023/09/27 07:42:56;;;;;;;23.92;12.15;;;22.60;99.90;;;;;;5076599;28;20111;-67
2023/09/27 07:45:21;;;;;;;17.85;11.52;;;22.80;99.90;;;;;;5042752;28;20037;-66
2023/09/27 07:47:49;;;;;;;16.30;10.75;;;23.10;99.90;;;;;;5076775;28;20422;-66
2023/09/27 07:50:15;;;;;;;21.90;11.35;;;23.60;99.90;;;;;;5076740;28;20031;-66
2023/09/27 07:52:41;;;;;;;18.30;10.85;;;23.70;99.90;;;;;;5076660;28;20082;-66
2023/09/27 07:55:09;;;;;;;15.10;10.25;;;23.90;99.90;;;;;;5076686;28;20119;-67
2023/09/27 07:57:36;;;;;;;13.55;10.00;;;24.40;99.90;;;;;;5058603;28;20357;-66
2023/09/27 08:00:08;;;;;;;14.15;10.05;;;24.90;98.90;;;;;;5076471;28;20104;-66
2023/09/27 08:02:34;;;;;;;14.80;9.68;;;25.00;98.00;;;;;;5077127;28;20048;-66
2023/09/27 08:05:02;;;;;;;16.60;9.55;;;25.20;97.70;;;;;;5076258;28;20477;-69
2023/09/27 08:07:28;;;;;;;17.35;9.20;;;25.50;96.70;;;;;;5076277;28;20372;-66
2023/09/27 08:09:54;;;;;;;19.38;9.63;;;25.60;96.10;;;;;;5075762;28;20467;-66
2023/09/27 08:12:20;;;;;;;12.63;9.57;;;25.80;95.70;;;;;;5075867;28;20025;-66
2023/09/27 08:14:46;;;;;;;12.00;8.80;;;25.80;95.20;;;;;;5075863;28;20444;-66
2023/09/27 08:17:11;;;;;;;15.07;8.60;;;26.10;95.00;;;;;;5076352;28;20035;-66
2023/09/27 08:19:38;;;;;;;15.35;9.00;;;26.30;94.00;;;;;;5076496;28;20484;-66
2023/09/27 08:22:04;;;;;;;12.23;8.27;;;26.40;93.90;;;;;;5075972;28;20103;-67
2023/09/27 08:24:29;;;;;;;17.75;8.60;;;26.80;93.30;;;;;;5075922;28;20104;-68
2023/09/27 08:26:56;;;;;;;13.63;8.52;;;27.10;92.10;;;;;;5075688;28;20530;-68
2023/09/27 08:29:22;;;;;;;9.80;7.47;;;27.10;91.60;;;;;;5076299;28;20021;-66
2023/09/27 08:31:47;;;;;;;10.80;7.63;;;27.50;91.00;;;;;;5075813;28;20028;-66
2023/09/27 08:34:13;;;;;;;13.52;7.50;;;27.60;90.20;;;;;;5057541;28;20027;-67
2023/09/27 08:36:39;;;;;;;12.63;7.47;;;27.80;89.60;;;;;;5075543;28;20056;-67
2023/09/27 08:39:04;;;;;;;12.02;8.15;;;28.00;88.00;;;;;;5076261;28;20070;-69
2023/09/27 08:41:30;;;;;;;11.13;8.23;;;27.80;87.40;;;;;;5057744;28;20032;-67
2023/09/27 08:43:57;;;;;;;12.75;7.88;;;28.00;86.10;;;;;;5057720;28;20025;-66
2023/09/27 08:46:24;;;;;;;12.63;7.75;;;27.80;85.70;;;;;;5057397;28;20456;-68
2023/09/27 08:48:51;;;;;;;11.32;7.28;;;27.80;85.50;;;;;;5057757;28;20431;-66
2023/09/27 08:51:17;;;;;;;15.05;7.93;;;27.80;84.40;;;;;;5075300;28;20016;-66
2023/09/27 08:53:43;;;;;;;12.30;7.75;;;27.70;84.20;;;;;;5057515;28;20024;-66
2023/09/27 08:56:12;;;;;;;14.27;7.80;;;27.50;84.00;;;;;;5075045;28;20036;-66
2023/09/27 08:58:38;;;;;;;10.32;6.50;;;27.90;83.20;;;;;;5057561;28;20021;-67
2023/09/27 09:01:09;;;;;;;17.08;8.40;;;28.50;82.10;;;;;;5057671;28;20182;-67
2023/09/27 09:03:37;;;;;;;11.70;6.63;;;29.10;79.10;;;;;;5075454;28;20036;-66
2023/09/27 09:06:07;;;;;;;12.23;7.60;;;29.30;78.60;;;;;;5074896;28;20089;-67
2023/09/27 09:08:41;;;;;;;14.30;6.70;;;29.60;76.20;;;;;;5075351;28;20068;-67
2023/09/27 09:11:11;;;;;;;7.95;6.00;;;29.50;76.00;;;;;;5074802;28;20028;-68
2023/09/27 09:13:57;;;;;;;13.20;6.07;;;30.10;74.80;;;;;;5075198;28;20024;-69
2023/09/27 09:16:23;;;;;;;10.60;6.05;;;30.60;72.70;;;;;;5075176;28;20115;-63
2023/09/27 09:18:52;;;;;;;9.07;5.80;;;30.60;71.80;;;;;;5078822;28;20028;-71
2023/09/27 09:21:19;;;;;;;10.00;6.35;;;30.80;71.10;;;;;;5082496;28;20029;-64
2023/09/27 09:23:48;;;;;;;10.38;5.38;;;31.00;70.50;;;;;;5081041;28;20025;-63
2023/09/27 09:26:29;;;;;;;13.00;5.78;;;31.30;70.00;;;;;;5062882;28;20033;-64
2023/09/27 09:28:56;;;;;;;14.25;5.47;;;31.70;68.10;;;;;;5077324;28;20031;-64
2023/09/27 09:31:24;;;;;;;8.85;5.55;;;31.50;68.10;;;;;;5074594;28;20053;-63
2023/09/27 09:34:08;;;;;;;9.93;5.47;;;31.80;67.40;;;;;;5074433;28;20032;-63
2023/09/27 09:36:54;;;;;;;12.45;4.93;;;32.00;66.00;;;;;;5086888;28;20044;-63
2023/09/27 09:39:21;;;;;;;7.97;5.30;;;32.10;66.00;;;;;;5093444;28;20028;-63
2023/09/27 09:41:48;;;;;;;7.35;4.75;;;32.30;65.20;;;;;;5093318;28;20028;-64
2023/09/27 09:44:20;;;;;;;10.35;5.10;;;32.50;64.50;;;;;;5094605;28;20032;-63
2023/09/27 09:46:46;;;;;;;9.40;4.93;;;32.70;63.60;;;;;;5093308;28;20024;-63
2023/09/27 09:49:17;;;;;;;8.75;5.07;;;32.90;63.00;;;;;;5094210;28;20414;-63
2023/09/27 09:51:47;;;;;;;8.88;5.50;;;32.90;62.80;;;;;;5094640;28;20047;-63
2023/09/27 09:54:20;;;;;;;9.77;4.93;;;32.90;62.10;;;;;;5093591;28;20036;-64
2023/09/27 09:56:49;;;;;;;10.63;5.20;;;32.90;62.40;;;;;;5093572;28;20028;-62
2023/09/27 09:59:22;;;;;;;8.15;5.00;;;33.40;61.60;;;;;;5093211;28;20110;-63
2023/09/27 10:01:51;;;;;;;10.85;5.13;;;33.50;60.90;;;;;;5093211;28;20468;-63
2023/09/27 10:04:17;;;;;;;6.93;4.60;;;33.60;60.30;;;;;;5092933;28;20028;-63
2023/09/27 10:06:43;;;;;;;9.13;5.18;;;34.00;59.60;;;;;;5094532;28;20460;-63
2023/09/27 10:09:13;;;;;;;11.73;4.90;;;34.20;59.30;;;;;;5093512;28;20093;-62
2023/09/27 10:11:40;;;;;;;9.90;4.80;;;33.90;59.20;;;;;;5093318;28;20028;-63
2023/09/27 10:14:10;;;;;;;8.05;4.85;;;33.90;58.40;;;;;;5092615;28;20024;-63
2023/09/27 10:16:37;;;;;;;9.07;4.05;;;33.80;58.20;;;;;;5094483;28;20508;-63
2023/09/27 10:19:05;;;;;;;9.10;4.60;;;33.70;58.70;;;;;;5092812;28;20031;-62
2023/09/27 10:21:31;;;;;;;7.38;4.57;;;33.20;58.80;;;;;;5092670;28;20360;-63
2023/09/27 10:23:59;;;;;;;10.32;4.90;;;32.90;57.90;;;;;;5092551;28;20464;-63
2023/09/27 10:26:28;;;;;;;10.48;4.85;;;32.80;59.50;;;;;;5092609;28;20036;-62
2023/09/27 10:29:16;;;;;;;7.40;4.32;;;33.20;59.30;;;;;;5092474;28;20128;-63
2023/09/27 10:31:55;;;;;;;6.57;4.32;;;33.30;59.00;;;;;;5092604;28;20032;-70
2023/09/27 10:34:36;;;;;;;10.38;4.18;;;33.50;58.00;;;;;;5092350;28;20058;-70
2023/09/27 10:37:02;;;;;;;9.75;4.45;;;33.70;57.50;;;;;;5093597;28;20035;-70
2023/09/27 10:39:28;;;;;;;7.70;5.15;;;34.20;57.40;;;;;;5093771;28;20020;-71
2023/09/27 10:41:54;;;;;;;9.60;4.85;;;34.30;56.80;;;;;;5093445;28;20069;-70
2023/09/27 10:44:28;;;;;;;10.35;4.63;;;34.20;56.60;;;;;;5092485;28;20123;-68
2023/09/27 10:46:53;;;;;;;8.30;4.30;;;34.50;56.40;;;;;;5092475;28;20383;-71
2023/09/27 10:49:26;;;;;;;12.60;4.90;;;34.90;55.70;;;;;;5093862;28;20024;-72
2023/09/27 10:51:53;;;;;;;11.48;4.45;;;34.50;55.70;;;;;;5093983;28;20051;-71
2023/09/27 10:54:26;;;;;;;8.25;4.32;;;34.80;55.10;;;;;;5093697;28;20067;-71
2023/09/27 10:56:53;;;;;;;7.10;3.90;;;35.20;54.80;;;;;;5092658;28;20024;-71
2023/09/27 10:59:36;;;;;;;7.32;4.03;;;35.00;53.40;;;;;;5093687;28;20467;-71
2023/09/27 11:02:06;;;;;;;8.43;4.18;;;35.20;52.60;;;;;;5093658;28;20032;-71
2023/09/27 11:04:33;;;;;;;7.70;4.22;;;35.80;52.60;;;;;;5093442;28;20109;-71
2023/09/27 11:06:59;;;;;;;10.10;3.92;;;35.60;52.10;;;;;;5093831;28;20571;-71
2023/09/27 11:09:26;;;;;;;11.98;4.03;;;35.30;52.10;;;;;;5092317;28;20032;-71
2023/09/27 11:11:54;;;;;;;7.90;3.60;;;34.90;52.50;;;;;;5092272;28;20467;-71
2023/09/27 11:14:33;;;;;;;9.97;4.10;;;35.20;51.50;;;;;;5093561;28;20027;-70
2023/09/27 11:17:22;;;;;;;9.88;3.80;;;34.90;51.30;;;;;;5093510;28;20029;-71
2023/09/27 11:19:51;;;;;;;10.93;4.20;;;34.60;52.30;;;;;;5093606;28;20024;-70
2023/09/27 11:22:44;;;;;;;9.35;4.13;;;34.70;51.50;;;;;;5093649;28;20023;-70
2023/09/27 11:25:33;;;;;;;11.98;3.92;;;34.60;51.30;;;;;;5090224;28;20066;-70
2023/09/27 11:27:59;;;;;;;8.93;3.55;;;34.90;49.30;;;;;;5093551;28;20024;-71
2023/09/27 11:30:28;;;;;;;9.45;4.22;;;35.00;51.00;;;;;;5093298;28;20043;-71
2023/09/27 11:32:54;;;;;;;7.70;3.78;;;34.90;50.40;;;;;;5092403;28;20051;-72
2023/09/27 11:35:20;;;;;;;9.45;3.25;;;35.20;49.40;;;;;;5086342;28;20501;-59
2023/09/27 11:37:47;;;;;;;11.15;4.18;;;34.80;51.20;;;;;;5073026;28;20029;-59
2023/09/27 11:40:13;;;;;;;11.50;3.70;;;34.20;49.60;;;;;;5073006;28;20028;-58
2023/09/27 11:42:39;;;;;;;5.90;4.00;;;33.80;50.70;;;;;;5073422;28;20028;-58
2023/09/27 11:45:09;;;;;;;13.98;4.03;;;32.20;51.80;;;;;;5073904;28;20105;-58
2023/09/27 11:47:48;;;;;;;9.23;3.90;;;32.40;52.90;;;;;;5076747;28;20104;-58
2023/09/27 11:50:15;;;;;;;10.18;4.03;;;32.20;52.50;;;;;;5076665;28;20027;-56
2023/09/27 11:52:46;;;;;;;17.20;3.65;;;31.90;52.70;;;;;;5076520;28;20384;-57
2023/09/27 11:55:13;;;;;;;11.02;3.60;;;32.10;53.30;;;;;;5076424;28;20041;-59
2023/09/27 11:57:39;;;;;;;7.15;3.80;;;32.30;52.90;;;;;;5076376;28;20361;-57
2023/09/27 12:00:09;;;;;;;13.20;3.92;;;32.30;53.20;;;;;;5076343;28;20024;-59
2023/09/27 12:02:35;;;;;;;6.97;4.07;;;32.50;51.60;;;;;;5076289;28;20024;-58
2023/09/27 12:05:04;;;;;;;8.23;3.15;;;32.50;51.30;;;;;;5076381;28;20036;-71
2023/09/27 12:07:30;;;;;;;9.15;3.65;;;32.80;50.60;;;;;;5058183;28;20123;-70
2023/09/27 12:09:56;;;;;;;10.85;3.80;;;33.20;49.40;;;;;;5058330;28;20515;-70
2023/09/27 12:12:22;;;;;;;12.00;3.17;;;34.10;48.70;;;;;;5058139;28;20056;-70
2023/09/27 12:14:49;;;;;;;7.75;3.30;;;34.10;47.20;;;;;;5076166;28;20032;-71
2023/09/27 12:17:18;;;;;;;9.25;3.75;;;34.20;47.50;;;;;;5058155;28;20029;-71
2023/09/27 12:19:45;;;;;;;9.55;3.38;;;34.40;47.50;;;;;;5057975;28;20529;-71
2023/09/27 12:22:11;;;;;;;6.28;3.38;;;34.30;46.40;;;;;;5076098;28;20021;-70
2023/09/27 12:24:37;;;;;;;10.75;3.33;;;33.90;47.00;;;;;;5057999;28;20468;-70
2023/09/27 12:27:03;;;;;;;9.57;3.60;;;33.90;47.20;;;;;;5076015;28;20027;-70
2023/09/27 12:29:29;;;;;;;7.22;3.78;;;34.50;47.00;;;;;;5075956;28;20025;-71
2023/09/27 12:31:55;;;;;;;7.88;3.50;;;34.90;45.90;;;;;;5075777;28;20031;-70
2023/09/27 12:34:21;;;;;;;9.57;3.63;;;34.10;46.10;;;;;;5078811;28;20033;-70
2023/09/27 12:36:47;;;;;;;8.73;3.40;;;33.70;47.10;;;;;;5095198;28;20131;-70